Time;durP1;ratioP1;P1;durP2;ratioP2;P2;SDS_P1;SDS_P2;PMS_P1;PMS_P2;Temp;Humidity;BMP_temperature;BMP_pressure;BME280_temperature;BME280_humidity;BME280_pressure;Samples;Min_cycle;Max_cycle;Signal;HPM_P1;HPM_P2
2021/08/30 00:00:20;;;;;;;2.10;2.00;;;16.50;99.90;;;;;;5108262;28;20203;-72
2021/08/30 00:02:47;;;;;;;3.47;2.00;;;16.50;99.90;;;;;;5108121;28;20252;-72
2021/08/30 00:05:14;;;;;;;2.60;2.50;;;16.50;99.90;;;;;;5107957;28;20685;-72
2021/08/30 00:07:40;;;;;;;2.57;2.47;;;16.50;99.90;;;;;;5108014;28;20255;-72
2021/08/30 00:10:08;;;;;;;2.40;2.20;;;16.50;99.90;;;;;;5107736;28;20714;-72
2021/08/30 00:12:40;;;;;;;2.60;2.40;;;16.50;99.90;;;;;;5107894;28;20256;-72
2021/08/30 00:15:08;;;;;;;2.27;2.10;;;16.50;99.90;;;;;;5108044;28;20226;-72
2021/08/30 00:17:35;;;;;;;2.53;2.33;;;16.50;99.90;;;;;;5107852;28;20202;-72
2021/08/30 00:20:02;;;;;;;2.50;2.40;;;16.50;99.90;;;;;;5118499;28;20725;-72
2021/08/30 00:22:28;;;;;;;2.20;2.10;;;16.50;99.90;;;;;;5128348;28;21051;-72
2021/08/30 00:24:55;;;;;;;2.70;2.40;;;16.50;99.90;;;;;;5128592;28;20218;-72
2021/08/30 00:27:21;;;;;;;3.00;2.53;;;16.40;99.90;;;;;;5130781;27;20205;-71
2021/08/30 00:29:49;;;;;;;2.40;2.20;;;16.40;99.90;;;;;;5132297;27;20216;-71
2021/08/30 00:32:16;;;;;;;2.70;2.50;;;16.40;99.90;;;;;;5131743;27;20229;-71
2021/08/30 00:34:43;;;;;;;2.50;2.30;;;16.40;99.90;;;;;;5132171;27;20213;-71
2021/08/30 00:37:09;;;;;;;2.43;2.23;;;16.40;99.90;;;;;;5132087;27;20201;-71
2021/08/30 00:39:36;;;;;;;2.50;2.30;;;16.40;99.90;;;;;;5131902;27;20241;-71
2021/08/30 00:42:03;;;;;;;2.70;2.50;;;16.30;99.90;;;;;;5132069;27;20262;-71
2021/08/30 00:44:29;;;;;;;3.50;2.60;;;16.30;99.90;;;;;;5131889;27;20229;-71
2021/08/30 00:46:58;;;;;;;2.73;2.50;;;16.30;99.90;;;;;;5131936;27;20209;-71
2021/08/30 00:49:24;;;;;;;2.93;2.57;;;16.30;99.90;;;;;;5126379;27;20210;-71
2021/08/30 00:51:51;;;;;;;2.63;2.53;;;16.30;99.90;;;;;;5111249;28;20206;-71
2021/08/30 00:54:19;;;;;;;2.30;2.10;;;16.20;99.90;;;;;;5110834;28;20237;-71
2021/08/30 00:56:46;;;;;;;2.50;2.40;;;16.20;99.90;;;;;;5111293;28;20205;-71
2021/08/30 00:59:14;;;;;;;2.40;2.27;;;16.30;99.90;;;;;;5111290;28;20206;-71
2021/08/30 01:01:41;;;;;;;2.50;2.40;;;16.30;99.90;;;;;;5111006;28;20206;-71
2021/08/30 01:04:10;;;;;;;3.13;2.63;;;16.30;99.90;;;;;;5110914;28;20218;-71
2021/08/30 01:06:44;;;;;;;2.77;2.57;;;16.30;99.90;;;;;;5110663;28;20230;-71
2021/08/30 01:09:21;;;;;;;2.40;2.30;;;16.20;99.90;;;;;;5110987;28;20257;-71
2021/08/30 01:11:55;;;;;;;2.70;2.50;;;16.20;99.90;;;;;;5110932;28;20255;-71
2021/08/30 01:14:24;;;;;;;2.40;2.20;;;16.20;99.90;;;;;;5118031;27;20608;-71
2021/08/30 01:16:52;;;;;;;2.50;2.30;;;16.30;99.90;;;;;;5131239;27;20227;-71
2021/08/30 01:19:31;;;;;;;2.87;2.67;;;16.20;99.90;;;;;;5130868;27;20663;-71
2021/08/30 01:21:58;;;;;;;2.80;2.60;;;16.20;99.90;;;;;;5131038;27;20605;-71
2021/08/30 01:24:27;;;;;;;2.50;2.40;;;16.20;99.90;;;;;;5131033;27;20209;-71
2021/08/30 01:26:56;;;;;;;2.50;2.40;;;16.20;99.90;;;;;;5131003;27;20201;-72
2021/08/30 01:29:28;;;;;;;2.60;2.40;;;16.20;99.90;;;;;;5130877;27;20201;-72
2021/08/30 01:31:58;;;;;;;2.43;2.33;;;16.20;99.90;;;;;;5131038;27;20198;-71
2021/08/30 01:34:29;;;;;;;2.67;2.57;;;16.20;99.90;;;;;;5130569;27;20792;-71
2021/08/30 01:36:56;;;;;;;2.90;2.70;;;16.20;99.90;;;;;;5130504;27;20569;-71
2021/08/30 01:39:29;;;;;;;3.20;3.00;;;16.20;99.90;;;;;;5130523;27;20612;-71
2021/08/30 01:41:57;;;;;;;2.77;2.67;;;16.20;99.90;;;;;;5131151;27;21042;-71
2021/08/30 01:44:24;;;;;;;3.30;3.10;;;16.20;99.90;;;;;;5130642;27;20285;-72
2021/08/30 01:46:51;;;;;;;3.60;3.30;;;16.20;99.90;;;;;;5130214;27;20206;-71
2021/08/30 01:49:20;;;;;;;3.17;2.90;;;16.30;99.90;;;;;;5126056;27;20245;-71
2021/08/30 01:51:49;;;;;;;5.17;3.50;;;16.20;99.90;;;;;;5109932;28;20201;-71
2021/08/30 01:54:16;;;;;;;3.37;3.17;;;16.30;99.90;;;;;;5109696;28;20286;-71
2021/08/30 01:56:47;;;;;;;3.50;3.20;;;16.30;99.90;;;;;;5109767;28;20210;-71
2021/08/30 02:01:59;;;;;;;2.80;2.70;;;16.30;99.90;;;;;;5109842;28;20197;-71
2021/08/30 02:04:26;;;;;;;3.20;2.90;;;16.30;99.90;;;;;;5109817;28;20206;-71
2021/08/30 02:06:54;;;;;;;3.10;2.87;;;16.30;99.90;;;;;;5109480;28;20645;-71
2021/08/30 02:09:20;;;;;;;3.03;2.87;;;16.30;99.90;;;;;;5109427;28;20222;-72
2021/08/30 02:11:47;;;;;;;3.03;2.90;;;16.30;99.90;;;;;;5109723;28;20214;-72
2021/08/30 02:14:14;;;;;;;2.93;2.73;;;16.30;99.90;;;;;;5109703;28;21096;-70
2021/08/30 02:16:40;;;;;;;3.10;3.00;;;16.30;99.90;;;;;;5109441;28;20229;-70
2021/08/30 02:19:14;;;;;;;3.40;3.20;;;16.30;99.90;;;;;;5112505;27;20210;-70
2021/08/30 02:21:44;;;;;;;3.70;3.50;;;16.30;99.90;;;;;;5129838;27;20205;-70
2021/08/30 02:24:16;;;;;;;3.60;3.30;;;16.30;99.90;;;;;;5130165;27;20205;-72
2021/08/30 02:26:47;;;;;;;3.50;3.30;;;16.30;99.90;;;;;;5129457;27;20724;-73
2021/08/30 02:29:19;;;;;;;3.77;3.57;;;16.30;99.90;;;;;;5130114;27;20238;-73
2021/08/30 02:31:49;;;;;;;3.83;3.53;;;16.30;99.90;;;;;;5130053;27;20190;-72
2021/08/30 02:34:17;;;;;;;4.80;3.63;;;16.20;99.90;;;;;;5129671;27;20271;-71
2021/08/30 02:36:44;;;;;;;5.83;3.73;;;16.20;99.90;;;;;;5129667;27;20201;-71
2021/08/30 02:39:12;;;;;;;4.07;3.70;;;16.20;99.90;;;;;;5129878;27;20233;-71
2021/08/30 02:41:39;;;;;;;3.90;3.70;;;16.20;99.90;;;;;;5129298;27;20250;-71
2021/08/30 02:44:06;;;;;;;3.90;3.70;;;16.20;99.90;;;;;;5129420;27;20229;-71
2021/08/30 02:46:34;;;;;;;3.60;3.30;;;16.20;99.90;;;;;;5124935;27;20242;-71
2021/08/30 02:49:03;;;;;;;3.50;3.30;;;16.20;99.90;;;;;;5108117;28;20206;-71
2021/08/30 02:51:31;;;;;;;3.50;3.20;;;16.20;99.90;;;;;;5108957;28;20206;-71
2021/08/30 02:53:58;;;;;;;3.70;3.27;;;16.20;99.90;;;;;;5108493;28;20294;-71
2021/08/30 02:56:27;;;;;;;3.40;3.10;;;16.20;99.90;;;;;;5108817;28;20230;-71
2021/08/30 02:58:55;;;;;;;3.37;3.17;;;16.20;99.90;;;;;;5108843;28;20286;-71
2021/08/30 03:01:23;;;;;;;3.17;3.00;;;16.20;99.90;;;;;;5108785;28;20262;-70
2021/08/30 03:03:50;;;;;;;3.47;3.27;;;16.20;99.90;;;;;;5107671;28;20251;-70
2021/08/30 03:06:18;;;;;;;3.90;3.43;;;16.20;99.90;;;;;;5108580;28;20279;-72
2021/08/30 03:08:45;;;;;;;3.27;3.07;;;16.20;99.90;;;;;;5108214;28;20218;-71
2021/08/30 03:11:14;;;;;;;3.13;3.03;;;16.20;99.90;;;;;;5108551;28;20206;-71
2021/08/30 03:13:44;;;;;;;3.53;3.33;;;16.20;99.90;;;;;;5104441;28;20703;-71
2021/08/30 03:16:11;;;;;;;3.60;3.40;;;16.20;99.90;;;;;;5089396;28;20244;-71
2021/08/30 03:18:40;;;;;;;3.30;3.00;;;16.20;99.90;;;;;;5104925;28;20206;-71
2021/08/30 03:21:08;;;;;;;3.73;3.43;;;16.20;99.90;;;;;;5105163;28;20255;-71
2021/08/30 03:23:37;;;;;;;3.80;3.60;;;16.20;99.90;;;;;;5104960;28;20629;-71
2021/08/30 03:26:04;;;;;;;4.30;4.00;;;16.20;99.90;;;;;;5104858;28;20210;-71
2021/08/30 03:28:32;;;;;;;3.77;3.37;;;16.20;99.90;;;;;;5105215;28;20202;-71
2021/08/30 03:31:00;;;;;;;3.90;3.70;;;16.20;99.90;;;;;;5105069;28;20244;-71
2021/08/30 03:33:28;;;;;;;4.83;4.43;;;16.10;99.90;;;;;;5104292;28;20888;-71
2021/08/30 03:35:55;;;;;;;3.70;3.50;;;16.00;99.90;;;;;;5104487;28;20254;-71
2021/08/30 03:38:23;;;;;;;3.87;3.57;;;16.10;99.90;;;;;;5103817;28;20727;-71
2021/08/30 03:40:50;;;;;;;4.40;4.00;;;16.10;99.90;;;;;;5104450;28;20203;-71
2021/08/30 03:43:18;;;;;;;7.00;4.13;;;16.10;99.90;;;;;;5104390;28;20268;-71
2021/08/30 03:45:46;;;;;;;4.37;4.17;;;16.10;99.90;;;;;;5104083;28;20716;-71
2021/08/30 03:48:14;;;;;;;4.37;4.17;;;16.10;99.90;;;;;;5104739;28;20217;-71
2021/08/30 03:50:41;;;;;;;4.33;4.03;;;16.10;99.90;;;;;;5104162;28;20725;-71
2021/08/30 03:53:09;;;;;;;4.30;4.10;;;16.10;99.90;;;;;;5104667;28;20234;-71
2021/08/30 03:55:36;;;;;;;4.57;4.20;;;16.10;99.90;;;;;;5104433;28;20206;-71
2021/08/30 03:58:05;;;;;;;4.70;4.40;;;16.10;99.90;;;;;;5104515;28;20213;-71
2021/08/30 04:00:32;;;;;;;4.80;4.50;;;16.00;99.90;;;;;;5090294;27;20260;-70
2021/08/30 04:03:08;;;;;;;5.67;4.20;;;16.10;99.90;;;;;;5097123;28;20210;-72
2021/08/30 04:05:38;;;;;;;4.70;4.37;;;16.10;99.90;;;;;;5091308;28;20232;-71
2021/08/30 04:08:08;;;;;;;4.50;4.10;;;16.00;99.90;;;;;;5091230;28;20732;-71
2021/08/30 04:10:36;;;;;;;5.43;4.93;;;16.00;99.90;;;;;;5097281;28;20198;-71
2021/08/30 04:13:04;;;;;;;4.93;4.60;;;16.10;99.90;;;;;;5103104;28;20628;-71
2021/08/30 04:15:32;;;;;;;5.90;5.40;;;16.10;99.90;;;;;;5100519;28;20207;-71
2021/08/30 04:18:03;;;;;;;5.73;5.17;;;16.00;99.90;;;;;;5102571;27;20209;-71
2021/08/30 04:20:30;;;;;;;5.07;4.67;;;16.00;99.90;;;;;;5095749;28;20664;-71
2021/08/30 04:22:57;;;;;;;5.60;5.07;;;15.90;99.90;;;;;;5101028;28;20243;-70
2021/08/30 04:25:24;;;;;;;5.20;4.83;;;16.00;99.90;;;;;;5101328;28;20203;-71
2021/08/30 04:27:51;;;;;;;5.40;5.00;;;16.00;99.90;;;;;;5101432;28;20211;-71
2021/08/30 04:30:17;;;;;;;5.57;5.00;;;16.00;99.90;;;;;;5097810;28;20726;-71
2021/08/30 04:32:44;;;;;;;5.07;4.77;;;16.00;99.90;;;;;;5096587;28;20199;-71
2021/08/30 04:35:11;;;;;;;5.63;5.13;;;16.10;99.90;;;;;;5098472;28;20229;-70
2021/08/30 04:37:38;;;;;;;6.50;5.00;;;16.10;99.90;;;;;;5099843;28;20201;-71
2021/08/30 04:40:07;;;;;;;6.03;4.93;;;16.00;99.90;;;;;;5102303;27;20206;-70
2021/08/30 04:42:34;;;;;;;6.03;5.33;;;16.00;99.90;;;;;;5100581;28;20279;-70
2021/08/30 04:45:01;;;;;;;5.63;5.23;;;16.00;99.90;;;;;;5100347;28;20202;-70
2021/08/30 04:47:27;;;;;;;5.70;5.27;;;16.00;99.90;;;;;;5099735;28;20199;-71
2021/08/30 04:49:54;;;;;;;5.37;4.97;;;16.00;99.90;;;;;;5098451;28;20239;-71
2021/08/30 04:52:21;;;;;;;6.27;5.77;;;16.00;99.90;;;;;;5101656;28;20260;-70
2021/08/30 04:54:48;;;;;;;6.40;5.90;;;16.00;99.90;;;;;;5098264;27;20242;-70
2021/08/30 04:57:16;;;;;;;7.07;6.40;;;16.00;99.90;;;;;;5094899;28;20198;-73
2021/08/30 04:59:42;;;;;;;6.63;6.20;;;16.10;99.90;;;;;;5098337;27;20669;-73
2021/08/30 05:02:09;;;;;;;7.60;6.80;;;16.10;99.90;;;;;;5097863;28;20228;-73
2021/08/30 05:04:36;;;;;;;7.70;7.00;;;16.10;99.90;;;;;;5103486;28;20291;-71
2021/08/30 05:07:03;;;;;;;6.80;6.30;;;16.10;99.90;;;;;;5095616;28;20280;-71
2021/08/30 05:09:30;;;;;;;6.60;6.03;;;16.10;99.90;;;;;;5098431;28;20283;-71
2021/08/30 05:11:57;;;;;;;6.83;6.23;;;16.10;99.90;;;;;;5099961;28;20289;-71
2021/08/30 05:14:25;;;;;;;7.23;6.60;;;16.20;99.90;;;;;;5098856;28;20768;-71
2021/08/30 05:16:52;;;;;;;6.70;6.20;;;16.10;99.90;;;;;;5099702;28;20256;-71
2021/08/30 05:19:18;;;;;;;7.73;7.00;;;16.10;99.90;;;;;;5099465;28;20568;-71
2021/08/30 05:21:45;;;;;;;6.17;5.70;;;16.10;99.90;;;;;;5102100;28;20636;-71
2021/08/30 05:24:12;;;;;;;6.43;5.83;;;16.00;99.90;;;;;;5098703;27;20215;-71
2021/08/30 05:26:39;;;;;;;6.23;5.83;;;15.90;99.90;;;;;;5101654;28;20199;-71
2021/08/30 05:29:06;;;;;;;6.47;5.97;;;15.90;99.90;;;;;;5098259;28;20802;-71
2021/08/30 05:31:34;;;;;;;6.70;6.20;;;15.80;99.90;;;;;;5099086;28;20766;-71
2021/08/30 05:34:00;;;;;;;8.33;7.63;;;15.90;99.90;;;;;;5099211;28;20214;-70
2021/08/30 05:36:28;;;;;;;8.07;7.37;;;15.90;99.90;;;;;;5098387;28;20199;-71
2021/08/30 05:38:54;;;;;;;8.17;7.33;;;15.90;99.90;;;;;;5097131;28;20248;-71
2021/08/30 05:41:21;;;;;;;7.63;7.03;;;15.90;99.90;;;;;;5098907;28;20194;-71
2021/08/30 05:43:48;;;;;;;8.33;7.53;;;15.90;99.90;;;;;;5098349;28;20770;-71
2021/08/30 05:46:16;;;;;;;8.70;8.00;;;15.90;99.90;;;;;;5109033;28;20255;-71
2021/08/30 05:48:45;;;;;;;8.40;7.70;;;16.00;99.90;;;;;;5104303;28;20198;-71
2021/08/30 05:51:11;;;;;;;9.03;8.20;;;16.00;99.90;;;;;;5097004;28;20252;-71
2021/08/30 05:53:38;;;;;;;8.87;8.07;;;16.00;99.90;;;;;;5108661;28;20238;-71
2021/08/30 05:56:05;;;;;;;8.60;7.80;;;16.00;99.90;;;;;;5112397;27;20198;-70
2021/08/30 05:58:32;;;;;;;8.87;8.07;;;16.10;99.90;;;;;;5104217;28;20210;-71
2021/08/30 06:00:59;;;;;;;9.17;8.20;;;16.10;99.90;;;;;;5103106;28;20224;-71
2021/08/30 06:03:25;;;;;;;10.87;8.53;;;16.20;99.90;;;;;;5108253;28;20202;-71
2021/08/30 06:05:53;;;;;;;13.03;8.80;;;16.10;99.90;;;;;;5100258;28;20769;-71
2021/08/30 06:08:20;;;;;;;9.80;8.80;;;16.10;99.90;;;;;;5106832;28;20751;-71
2021/08/30 06:10:47;;;;;;;12.47;9.67;;;16.10;99.90;;;;;;5109127;28;20637;-70
2021/08/30 06:13:14;;;;;;;12.10;9.37;;;16.10;99.90;;;;;;5108893;28;20680;-71
2021/08/30 06:15:41;;;;;;;14.20;9.30;;;16.20;99.90;;;;;;5108717;28;20692;-71
2021/08/30 06:18:08;;;;;;;12.73;9.87;;;16.20;99.90;;;;;;5108884;28;20224;-71
2021/08/30 06:20:35;;;;;;;10.93;9.53;;;16.20;99.90;;;;;;5098169;28;20198;-71
2021/08/30 06:23:03;;;;;;;13.27;9.40;;;16.30;99.90;;;;;;5093797;28;20224;-71
2021/08/30 06:25:30;;;;;;;13.30;10.43;;;16.30;99.90;;;;;;5104887;28;20202;-71
2021/08/30 06:27:57;;;;;;;17.77;11.63;;;16.30;99.90;;;;;;5104187;28;20259;-71
2021/08/30 06:30:24;;;;;;;12.03;10.70;;;16.30;99.90;;;;;;5108187;28;20198;-71
2021/08/30 06:32:50;;;;;;;12.63;10.50;;;16.30;99.90;;;;;;5108151;28;20198;-71
2021/08/30 06:35:17;;;;;;;14.50;11.03;;;16.40;99.90;;;;;;5107997;28;20379;-71
2021/08/30 06:37:44;;;;;;;11.67;10.30;;;16.40;99.90;;;;;;5097342;28;20263;-71
2021/08/30 06:40:13;;;;;;;13.17;10.37;;;16.50;99.90;;;;;;5098782;28;20198;-71
2021/08/30 06:42:40;;;;;;;14.80;10.23;;;16.50;99.90;;;;;;5097683;28;20219;-71
2021/08/30 06:45:08;;;;;;;13.57;11.30;;;16.50;99.90;;;;;;5104263;28;20190;-71
2021/08/30 06:47:35;;;;;;;12.67;10.20;;;16.50;99.90;;;;;;5107247;27;20206;-71
2021/08/30 06:50:02;;;;;;;14.47;9.93;;;16.50;99.90;;;;;;5099614;28;20224;-71
2021/08/30 06:52:29;;;;;;;13.17;10.37;;;16.60;99.90;;;;;;5089984;28;20199;-71
2021/08/30 06:54:55;;;;;;;12.43;9.70;;;16.60;99.90;;;;;;5095133;28;20769;-71
2021/08/30 06:57:23;;;;;;;13.87;9.87;;;16.60;99.90;;;;;;5092708;28;20207;-71
2021/08/30 06:59:50;;;;;;;13.37;10.70;;;16.60;99.90;;;;;;5090060;28;20408;-71
2021/08/30 07:02:17;;;;;;;13.50;9.80;;;16.70;99.90;;;;;;5087203;28;20203;-71
2021/08/30 07:04:43;;;;;;;14.37;10.40;;;16.70;99.90;;;;;;5086860;28;20693;-71
2021/08/30 07:07:10;;;;;;;11.43;9.83;;;16.80;99.90;;;;;;5087054;28;21031;-71
2021/08/30 07:09:38;;;;;;;12.50;10.33;;;16.80;99.90;;;;;;5087186;28;20211;-71
2021/08/30 07:12:05;;;;;;;13.80;9.83;;;16.80;99.90;;;;;;5089419;28;20287;-71
2021/08/30 07:14:33;;;;;;;12.93;9.73;;;16.80;99.90;;;;;;5107423;28;20230;-71
2021/08/30 07:17:00;;;;;;;13.90;9.83;;;16.80;99.90;;;;;;5107713;28;20202;-71
2021/08/30 07:19:26;;;;;;;13.00;10.20;;;16.80;99.90;;;;;;5107543;28;20210;-71
2021/08/30 07:21:53;;;;;;;14.83;9.60;;;16.80;99.90;;;;;;5108076;28;20239;-71
2021/08/30 07:24:20;;;;;;;11.60;10.33;;;16.90;99.90;;;;;;5108517;28;20220;-71
2021/08/30 07:26:46;;;;;;;14.53;9.93;;;16.90;99.90;;;;;;5107892;28;20673;-71
2021/08/30 07:29:13;;;;;;;12.83;9.80;;;16.90;99.90;;;;;;5108005;28;20202;-71
2021/08/30 07:31:41;;;;;;;11.27;9.47;;;16.90;99.90;;;;;;5107795;28;20205;-71
2021/08/30 07:34:08;;;;;;;11.20;9.83;;;16.90;99.90;;;;;;5087734;28;20199;-71
2021/08/30 07:36:34;;;;;;;12.97;9.93;;;16.90;99.90;;;;;;5099933;28;20293;-71
2021/08/30 07:39:01;;;;;;;11.47;8.70;;;16.80;99.90;;;;;;5112339;28;20216;-71
2021/08/30 07:41:29;;;;;;;13.63;10.00;;;16.80;99.90;;;;;;5112108;28;20206;-71
2021/08/30 07:43:57;;;;;;;14.87;11.07;;;16.80;99.90;;;;;;5111976;28;20275;-71
2021/08/30 07:46:23;;;;;;;16.30;10.43;;;16.80;99.90;;;;;;5112194;28;20258;-71
2021/08/30 07:48:52;;;;;;;12.07;9.90;;;16.80;99.90;;;;;;5110951;28;20729;-71
2021/08/30 07:51:19;;;;;;;12.77;10.50;;;16.70;99.90;;;;;;5099353;28;20206;-71
2021/08/30 07:53:46;;;;;;;11.23;9.90;;;16.80;99.90;;;;;;5110627;28;20265;-71
2021/08/30 07:56:15;;;;;;;13.50;10.13;;;16.80;99.90;;;;;;5107920;28;20229;-71
2021/08/30 07:58:41;;;;;;;11.17;9.17;;;16.80;99.90;;;;;;5110505;28;20557;-71
2021/08/30 08:01:08;;;;;;;10.33;8.97;;;16.90;99.90;;;;;;5098116;28;20213;-71
2021/08/30 08:03:35;;;;;;;11.80;9.00;;;16.90;99.90;;;;;;5109100;28;20202;-71
2021/08/30 08:06:02;;;;;;;8.80;7.90;;;16.90;99.90;;;;;;5109063;28;20222;-71
2021/08/30 08:08:29;;;;;;;9.27;8.27;;;17.00;99.90;;;;;;5096817;28;20279;-71
2021/08/30 08:10:56;;;;;;;8.13;7.33;;;17.00;99.90;;;;;;5098965;28;20207;-71
2021/08/30 08:13:23;;;;;;;8.17;7.33;;;17.00;99.90;;;;;;5099811;28;20213;-71
2021/08/30 08:15:51;;;;;;;9.27;6.83;;;17.00;99.90;;;;;;5110254;28;20218;-71
2021/08/30 08:18:17;;;;;;;7.60;6.90;;;17.00;99.90;;;;;;5110170;28;20289;-71
2021/08/30 08:20:44;;;;;;;7.23;6.60;;;17.00;99.90;;;;;;5110368;28;20279;-71
2021/08/30 08:23:12;;;;;;;7.53;6.93;;;17.00;99.90;;;;;;5102096;28;20428;-71
2021/08/30 08:25:39;;;;;;;8.83;7.20;;;17.00;99.90;;;;;;5110294;28;20198;-71
2021/08/30 08:28:06;;;;;;;7.90;7.10;;;17.00;99.90;;;;;;5101956;28;20203;-71
2021/08/30 08:30:34;;;;;;;7.33;6.57;;;17.00;99.90;;;;;;5104480;28;20202;-71
2021/08/30 08:33:01;;;;;;;6.47;5.87;;;17.10;99.90;;;;;;5109916;28;20199;-71
2021/08/30 08:35:28;;;;;;;6.47;5.83;;;17.20;99.90;;;;;;5104912;28;20226;-71
2021/08/30 08:37:55;;;;;;;6.13;5.57;;;17.20;99.90;;;;;;5108728;28;20258;-71
2021/08/30 08:40:23;;;;;;;5.60;5.10;;;17.20;99.90;;;;;;5098920;28;20268;-71
2021/08/30 08:42:50;;;;;;;5.87;5.47;;;17.20;99.90;;;;;;5100759;28;20275;-71
2021/08/30 08:45:17;;;;;;;5.67;5.17;;;17.30;99.90;;;;;;5099685;28;20566;-72
2021/08/30 08:47:44;;;;;;;5.27;4.87;;;17.30;99.90;;;;;;5109317;28;20198;-72
2021/08/30 08:50:13;;;;;;;5.13;4.83;;;17.30;99.90;;;;;;5109931;28;20198;-71
2021/08/30 08:52:41;;;;;;;5.20;4.80;;;17.30;99.90;;;;;;5109856;28;20190;-71
2021/08/30 08:55:09;;;;;;;5.73;5.33;;;17.30;99.90;;;;;;5101372;28;20723;-72
2021/08/30 08:57:37;;;;;;;4.77;4.47;;;17.40;99.90;;;;;;5110194;28;20193;-71
2021/08/30 09:00:06;;;;;;;5.20;4.80;;;17.40;99.90;;;;;;5109962;28;20261;-71
2021/08/30 09:02:34;;;;;;;6.93;5.03;;;17.30;99.90;;;;;;5098765;28;20268;-72
2021/08/30 09:05:01;;;;;;;5.10;4.80;;;17.30;99.90;;;;;;5106332;28;20221;-72
2021/08/30 09:07:35;;;;;;;4.93;4.63;;;17.30;99.90;;;;;;5105507;28;20222;-72
2021/08/30 09:10:03;;;;;;;5.03;4.73;;;17.40;99.90;;;;;;5109927;28;20198;-71
2021/08/30 09:12:30;;;;;;;5.30;4.90;;;17.40;99.90;;;;;;5109568;28;20194;-71
2021/08/30 09:14:59;;;;;;;5.10;4.77;;;17.40;99.90;;;;;;5109490;28;20222;-72
2021/08/30 09:17:30;;;;;;;4.83;4.53;;;17.50;99.90;;;;;;5100877;28;20614;-72
2021/08/30 09:19:57;;;;;;;5.17;4.77;;;17.60;99.90;;;;;;5099623;28;20187;-72
2021/08/30 09:22:34;;;;;;;5.80;5.40;;;17.60;99.90;;;;;;5109239;28;20206;-71
2021/08/30 09:25:09;;;;;;;5.37;4.70;;;17.60;99.90;;;;;;5107548;28;20205;-71
2021/08/30 09:27:38;;;;;;;4.60;4.40;;;17.70;99.90;;;;;;5104295;28;20193;-71
2021/08/30 09:30:11;;;;;;;5.30;5.00;;;17.80;99.90;;;;;;5100546;28;20210;-71
2021/08/30 09:32:38;;;;;;;4.70;4.33;;;17.80;99.90;;;;;;5104634;28;20202;-71
2021/08/30 09:35:05;;;;;;;5.23;4.80;;;17.60;99.90;;;;;;5100572;28;20233;-71
2021/08/30 09:37:37;;;;;;;5.10;4.70;;;17.50;99.90;;;;;;5106613;28;20234;-71
2021/08/30 09:40:06;;;;;;;5.40;5.10;;;17.50;99.90;;;;;;5107888;28;20198;-71
2021/08/30 09:42:32;;;;;;;5.37;4.97;;;17.60;99.90;;;;;;5107214;28;20255;-71
2021/08/30 09:45:10;;;;;;;5.27;4.97;;;17.60;99.90;;;;;;5104963;27;20209;-71
2021/08/30 09:47:48;;;;;;;5.20;4.80;;;17.70;99.90;;;;;;5104001;28;20190;-71
2021/08/30 09:50:14;;;;;;;4.43;4.13;;;17.60;99.90;;;;;;5106748;28;20194;-71
2021/08/30 09:52:41;;;;;;;4.43;4.13;;;17.60;99.90;;;;;;5107860;27;20213;-71
2021/08/30 09:55:08;;;;;;;4.90;4.60;;;17.60;99.90;;;;;;5108210;28;20255;-71
2021/08/30 09:57:37;;;;;;;4.90;4.50;;;17.60;99.90;;;;;;5099022;28;20197;-71
2021/08/30 10:00:06;;;;;;;4.80;4.50;;;17.60;99.90;;;;;;5099205;28;20199;-71
2021/08/30 10:02:36;;;;;;;5.03;4.73;;;17.60;99.90;;;;;;5098717;28;20661;-71
2021/08/30 10:05:04;;;;;;;4.80;4.50;;;17.60;99.90;;;;;;5096631;28;20652;-71
2021/08/30 10:07:31;;;;;;;4.80;4.50;;;17.60;99.90;;;;;;5100517;28;20305;-71
2021/08/30 10:10:02;;;;;;;4.77;4.47;;;17.60;99.90;;;;;;5102198;28;20327;-71
2021/08/30 10:12:28;;;;;;;5.03;4.63;;;17.60;99.90;;;;;;5097341;28;20288;-71
2021/08/30 10:14:56;;;;;;;5.07;4.77;;;17.60;99.90;;;;;;5108665;28;20660;-71
2021/08/30 10:17:23;;;;;;;7.13;4.57;;;17.50;99.90;;;;;;5096996;28;20206;-71
2021/08/30 10:19:58;;;;;;;5.23;4.87;;;17.60;99.90;;;;;;5099933;28;20195;-71
2021/08/30 10:22:25;;;;;;;4.87;4.57;;;17.50;99.90;;;;;;5107075;27;20213;-71
2021/08/30 10:24:53;;;;;;;5.30;4.90;;;17.50;99.90;;;;;;5098870;28;20221;-71
2021/08/30 10:27:29;;;;;;;5.00;4.70;;;17.50;99.90;;;;;;5098485;28;20206;-71
2021/08/30 10:30:09;;;;;;;4.50;4.10;;;17.40;99.90;;;;;;5106363;28;20190;-71
2021/08/30 10:32:41;;;;;;;4.57;4.27;;;17.40;99.90;;;;;;5106281;28;20186;-71
2021/08/30 10:35:18;;;;;;;4.30;4.00;;;17.40;99.90;;;;;;5107807;28;20699;-71
2021/08/30 10:37:50;;;;;;;4.33;4.03;;;17.50;99.90;;;;;;5107845;28;20198;-71
2021/08/30 10:40:17;;;;;;;4.20;3.90;;;17.60;99.90;;;;;;5099966;28;20199;-71
2021/08/30 10:42:45;;;;;;;4.07;3.77;;;17.70;99.90;;;;;;5107618;28;20587;-71
2021/08/30 10:45:12;;;;;;;3.83;3.63;;;17.70;99.90;;;;;;5105111;28;20221;-71
2021/08/30 10:47:39;;;;;;;5.10;4.70;;;17.80;99.90;;;;;;5107479;28;20237;-71
2021/08/30 10:50:18;;;;;;;4.50;4.20;;;17.90;99.90;;;;;;5107812;28;20202;-71
2021/08/30 10:52:46;;;;;;;81.67;26.73;;;17.90;99.90;;;;;;5096611;28;20198;-71
2021/08/30 10:55:18;;;;;;;18.13;8.80;;;18.00;99.90;;;;;;5107672;28;20294;-71
2021/08/30 10:57:51;;;;;;;7.67;6.23;;;18.00;99.90;;;;;;5107421;28;20828;-71
2021/08/30 11:00:18;;;;;;;5.50;5.00;;;18.00;99.90;;;;;;5105855;28;20187;-71
2021/08/30 11:02:48;;;;;;;5.33;4.83;;;17.90;99.90;;;;;;5107639;28;20202;-71
2021/08/30 11:05:19;;;;;;;5.87;5.30;;;17.80;99.90;;;;;;5101229;28;20808;-71
2021/08/30 11:07:51;;;;;;;7.70;7.17;;;17.80;99.90;;;;;;5101561;28;20230;-72
2021/08/30 11:10:19;;;;;;;6.10;5.43;;;17.90;99.90;;;;;;5102200;28;20186;-71
2021/08/30 11:12:46;;;;;;;5.73;5.23;;;17.90;99.90;;;;;;5107495;28;20639;-71
2021/08/30 11:15:13;;;;;;;5.40;5.00;;;17.90;99.90;;;;;;5107224;28;20250;-71
2021/08/30 11:17:40;;;;;;;4.60;4.30;;;17.80;99.90;;;;;;5107711;28;20239;-71
2021/08/30 11:20:08;;;;;;;4.33;4.03;;;17.80;99.90;;;;;;5096298;28;20190;-71
2021/08/30 11:22:34;;;;;;;4.10;3.70;;;17.80;99.90;;;;;;5097455;28;20244;-71
2021/08/30 11:25:05;;;;;;;4.20;3.90;;;17.80;99.90;;;;;;5107623;28;20552;-71
2021/08/30 11:27:33;;;;;;;4.80;4.50;;;17.90;99.90;;;;;;5102405;28;20182;-71
2021/08/30 11:30:02;;;;;;;4.13;3.87;;;18.00;99.90;;;;;;5107932;28;20198;-71
2021/08/30 11:32:30;;;;;;;4.37;3.97;;;18.20;99.90;;;;;;5102270;28;20194;-71
2021/08/30 11:34:58;;;;;;;4.83;4.43;;;18.30;99.90;;;;;;5107860;28;20207;-71
2021/08/30 11:37:26;;;;;;;3.70;3.40;;;18.40;99.90;;;;;;5095934;28;20214;-71
2021/08/30 11:39:56;;;;;;;4.03;3.73;;;18.40;99.90;;;;;;5094099;28;20672;-71
2021/08/30 11:42:27;;;;;;;3.80;3.60;;;18.30;99.90;;;;;;5101876;28;20229;-71
2021/08/30 11:44:55;;;;;;;4.07;3.67;;;18.40;99.90;;;;;;5107395;28;20292;-72
2021/08/30 11:47:23;;;;;;;4.00;3.70;;;18.50;99.90;;;;;;5107649;28;20202;-71
2021/08/30 11:49:51;;;;;;;3.80;3.60;;;18.70;99.90;;;;;;5096193;28;20248;-71
2021/08/30 11:52:21;;;;;;;3.90;3.60;;;18.80;99.90;;;;;;5107176;28;20198;-71
2021/08/30 11:54:58;;;;;;;3.40;3.10;;;18.90;99.90;;;;;;5106948;28;20245;-71
2021/08/30 11:57:27;;;;;;;3.37;3.17;;;18.90;99.90;;;;;;5095790;28;20224;-71
2021/08/30 11:59:54;;;;;;;3.50;3.20;;;18.90;99.90;;;;;;5107342;28;20218;-71
2021/08/30 12:02:21;;;;;;;3.70;3.47;;;19.00;99.90;;;;;;5099169;28;20292;-72
2021/08/30 12:04:48;;;;;;;3.87;3.47;;;19.10;99.90;;;;;;5107169;28;20214;-71
2021/08/30 12:07:17;;;;;;;3.50;3.30;;;19.10;99.90;;;;;;5106987;28;20230;-70
2021/08/30 12:09:45;;;;;;;4.07;3.77;;;19.20;99.90;;;;;;5106843;28;20190;-71
2021/08/30 12:12:19;;;;;;;4.20;3.73;;;19.10;99.90;;;;;;5103754;28;20660;-72
2021/08/30 12:15:01;;;;;;;3.67;3.37;;;19.20;99.90;;;;;;5106562;28;20728;-72
2021/08/30 12:17:30;;;;;;;3.33;3.10;;;19.30;99.90;;;;;;5107057;28;20221;-72
2021/08/30 12:19:58;;;;;;;3.30;3.10;;;19.30;99.90;;;;;;5094226;28;20199;-72
2021/08/30 12:22:27;;;;;;;3.80;3.50;;;19.30;99.90;;;;;;5103582;28;20846;-71
2021/08/30 12:25:06;;;;;;;3.50;3.27;;;19.20;99.90;;;;;;5097884;28;20210;-72
2021/08/30 12:27:35;;;;;;;3.80;2.97;;;19.10;99.90;;;;;;5096095;28;20260;-71
2021/08/30 12:30:19;;;;;;;3.17;2.97;;;19.00;99.90;;;;;;5104626;28;20195;-72
2021/08/30 12:32:54;;;;;;;3.60;2.70;;;19.00;99.90;;;;;;5110422;28;20190;-72
2021/08/30 12:35:24;;;;;;;3.23;3.03;;;18.90;99.90;;;;;;5110670;28;20198;-72
2021/08/30 12:37:51;;;;;;;3.80;3.37;;;18.80;99.90;;;;;;5108150;28;20199;-72
2021/08/30 12:40:18;;;;;;;3.80;3.50;;;18.80;99.90;;;;;;5104734;28;20198;-71
2021/08/30 12:42:45;;;;;;;3.67;3.40;;;18.70;99.90;;;;;;5104490;28;20275;-72
2021/08/30 12:45:14;;;;;;;3.70;3.40;;;18.60;99.90;;;;;;5110161;28;20202;-72
2021/08/30 12:47:42;;;;;;;3.60;3.30;;;18.60;99.90;;;;;;5110323;28;20213;-72
2021/08/30 12:50:10;;;;;;;3.67;3.47;;;18.50;99.90;;;;;;5110289;28;20190;-72
2021/08/30 12:52:37;;;;;;;3.70;3.33;;;18.50;99.90;;;;;;5101895;28;20194;-72